createdAt,value
2019-04-01T00:00:44.751Z,9.40
2019-04-01T00:03:17.754Z,9.50
2019-04-01T00:05:50.895Z,9.50
2019-04-01T00:08:24.001Z,9.30
2019-04-01T00:10:57.031Z,9.10
2019-04-01T00:13:30.141Z,9.30
2019-04-01T00:16:03.401Z,9.30
2019-04-01T00:18:36.521Z,9.10
2019-04-01T00:21:09.732Z,9.10
2019-04-01T00:23:42.741Z,9.20
2019-04-01T00:26:15.670Z,9.00
2019-04-01T00:28:48.652Z,9.10
2019-04-01T00:31:21.462Z,9.10
2019-04-01T00:33:54.571Z,9.20
2019-04-01T00:36:27.567Z,9.10
2019-04-01T00:39:00.551Z,9.10
2019-04-01T00:41:35.212Z,9.10
2019-04-01T00:44:09.605Z,8.90
2019-04-01T00:46:42.467Z,8.70
2019-04-01T00:49:15.361Z,9.00
2019-04-01T00:51:48.261Z,9.10
2019-04-01T00:54:21.151Z,9.10
2019-04-01T00:56:54.251Z,9.10
2019-04-01T00:59:27.448Z,9.00
2019-04-01T01:02:00.227Z,8.50
2019-04-01T01:04:33.341Z,8.30
2019-04-01T01:07:06.176Z,8.20
2019-04-01T01:09:39.111Z,8.30
2019-04-01T01:12:12.137Z,8.40
2019-04-01T01:14:45.192Z,8.80
2019-04-01T01:17:18.111Z,8.80
2019-04-01T01:19:51.272Z,8.80
2019-04-01T01:22:24.322Z,9.00
2019-04-01T01:24:57.224Z,8.70
2019-04-01T01:27:30.357Z,8.90
2019-04-01T01:30:04.118Z,9.10
2019-04-01T01:32:37.074Z,9.20
2019-04-01T01:35:10.191Z,8.90
2019-04-01T01:37:43.181Z,9.00
2019-04-01T01:40:16.335Z,9.00
2019-04-01T01:42:49.501Z,9.10
2019-04-01T01:45:22.531Z,9.00
2019-04-01T01:47:55.897Z,8.90
2019-04-01T01:50:28.951Z,8.80
2019-04-01T01:53:02.042Z,8.80
2019-04-01T01:55:35.131Z,8.60
2019-04-01T01:58:07.828Z,8.60
2019-04-01T02:00:41.871Z,8.50
2019-04-01T02:03:15.131Z,8.70
2019-04-01T02:05:48.331Z,8.60
2019-04-01T02:08:21.531Z,8.70
2019-04-01T02:10:54.552Z,8.70
2019-04-01T02:13:27.562Z,8.50
2019-04-01T02:16:00.631Z,8.60
2019-04-01T02:18:33.772Z,8.70
2019-04-01T02:21:06.404Z,8.40
2019-04-01T02:23:39.551Z,8.50
2019-04-01T02:26:12.561Z,8.60
2019-04-01T02:28:45.610Z,8.40
2019-04-01T02:31:18.752Z,8.50
2019-04-01T02:33:51.913Z,8.50
2019-04-01T02:36:24.691Z,8.50
2019-04-01T02:38:57.816Z,8.50
2019-04-01T02:41:30.895Z,8.60
2019-04-01T02:44:04.376Z,8.80
2019-04-01T02:46:37.351Z,8.60
2019-04-01T02:49:10.484Z,8.40
2019-04-01T02:51:43.734Z,8.50
2019-04-01T02:54:16.664Z,8.50
2019-04-01T02:56:49.914Z,8.40
2019-04-01T02:59:22.873Z,8.50
2019-04-01T03:01:56.053Z,8.60
2019-04-01T03:04:29.163Z,8.60
2019-04-01T03:07:02.244Z,8.30
2019-04-01T03:09:35.211Z,8.10
2019-04-01T03:12:07.877Z,8.40
2019-04-01T03:14:41.041Z,8.30
2019-04-01T03:17:13.902Z,8.40
2019-04-01T03:19:46.843Z,8.50
2019-04-01T03:22:19.702Z,8.60
2019-04-01T03:24:52.801Z,8.60
2019-04-01T03:27:25.676Z,8.60
2019-04-01T03:29:58.773Z,8.70
2019-04-01T03:32:31.950Z,8.80
2019-04-01T03:35:05.418Z,8.90
2019-04-01T03:37:38.682Z,8.90
2019-04-01T03:40:11.932Z,8.70
2019-04-01T03:42:45.021Z,8.80
2019-04-01T03:45:18.093Z,8.90
2019-04-01T03:47:51.243Z,9.00
2019-04-01T03:50:24.394Z,8.90
2019-04-01T03:52:57.222Z,8.90
2019-04-01T03:55:30.251Z,8.80
2019-04-01T03:58:03.800Z,9.00
2019-04-01T04:00:36.662Z,9.10
2019-04-01T04:03:09.501Z,9.00
2019-04-01T04:05:42.362Z,8.80
2019-04-01T04:08:15.513Z,8.80
2019-04-01T04:10:48.892Z,9.00
2019-04-01T04:13:21.675Z,9.00
2019-04-01T04:15:54.876Z,9.00
2019-04-01T04:18:27.862Z,9.20
2019-04-01T04:21:00.952Z,9.00
2019-04-01T04:23:33.903Z,9.00
2019-04-01T04:26:06.706Z,9.10
2019-04-01T04:28:39.881Z,9.20
2019-04-01T04:31:13.067Z,9.20
2019-04-01T04:33:46.021Z,9.10
2019-04-01T04:36:19.023Z,8.90
2019-04-01T04:38:51.982Z,8.90
2019-04-01T04:41:25.042Z,8.90
2019-04-01T04:43:58.211Z,9.20
2019-04-01T04:46:31.241Z,9.30
2019-04-01T04:49:04.950Z,9.20
2019-04-01T04:51:38.135Z,9.10
2019-04-01T04:54:11.081Z,9.30
2019-04-01T04:56:44.081Z,9.40
2019-04-01T04:59:17.431Z,9.40
2019-04-01T05:01:50.441Z,9.30
2019-04-01T05:04:23.617Z,9.40
2019-04-01T05:06:56.802Z,9.20
2019-04-01T05:09:30.080Z,9.20
2019-04-01T05:12:03.393Z,9.30
2019-04-01T05:14:36.291Z,9.40
2019-04-01T05:17:09.272Z,9.40
2019-04-01T05:19:42.440Z,9.20
2019-04-01T05:22:15.443Z,9.20
2019-04-01T05:24:48.335Z,9.20
2019-04-01T05:27:21.401Z,9.20
2019-04-01T05:29:54.422Z,9.30
2019-04-01T05:32:27.694Z,9.50
2019-04-01T05:35:00.751Z,9.60
2019-04-01T05:37:34.061Z,9.60
2019-04-01T05:40:06.773Z,9.70
2019-04-01T05:42:40.041Z,9.70
2019-04-01T05:45:13.101Z,9.60
2019-04-01T05:47:53.501Z,9.80
2019-04-01T05:50:26.443Z,10.00
2019-04-01T05:52:59.680Z,10.00
2019-04-01T05:55:32.622Z,10.00
2019-04-01T05:58:06.175Z,10.00
2019-04-01T06:00:40.573Z,10.10
2019-04-01T06:03:13.421Z,10.10
2019-04-01T06:05:46.671Z,10.20
2019-04-01T06:08:19.621Z,10.20
2019-04-01T06:10:52.580Z,10.30
2019-04-01T06:13:25.620Z,10.30
2019-04-01T06:15:58.591Z,10.30
2019-04-01T06:18:31.682Z,10.30
2019-04-01T06:21:05.662Z,10.30
2019-04-01T06:23:38.661Z,10.40
2019-04-01T06:26:11.473Z,10.20
2019-04-01T06:28:45.380Z,10.20
2019-04-01T06:31:18.271Z,10.40
2019-04-01T06:33:51.271Z,10.40
2019-04-01T06:36:24.083Z,10.50
2019-04-01T06:38:56.971Z,10.50
2019-04-01T06:41:29.870Z,10.60
2019-04-01T06:44:03.753Z,10.50
2019-04-01T06:46:36.670Z,10.60
2019-04-01T06:49:09.961Z,10.60
2019-04-01T06:51:42.940Z,10.60
2019-04-01T06:54:15.810Z,10.50
2019-04-01T06:56:48.801Z,10.60
2019-04-01T06:59:21.841Z,10.70
2019-04-01T07:01:54.861Z,10.90
2019-04-01T07:04:27.791Z,10.90
2019-04-01T07:07:00.771Z,11.00
2019-04-01T07:09:33.921Z,11.10
2019-04-01T07:12:06.586Z,11.20
2019-04-01T07:14:39.583Z,11.20
2019-04-01T07:17:12.442Z,11.20
2019-04-01T07:19:45.310Z,11.20
2019-04-01T07:22:18.120Z,11.20
2019-04-01T07:24:51.204Z,11.30
2019-04-01T07:27:23.972Z,11.40
2019-04-01T07:29:56.981Z,11.30
2019-04-01T07:32:29.825Z,11.30
2019-04-01T07:35:03.425Z,11.50
2019-04-01T07:37:36.451Z,11.40
2019-04-01T07:40:09.521Z,11.60
2019-04-01T07:42:42.351Z,11.60
2019-04-01T07:45:15.374Z,11.60
2019-04-01T07:47:51.512Z,11.70
2019-04-01T07:50:22.781Z,11.90
2019-04-01T07:52:55.941Z,11.80
2019-04-01T07:55:29.468Z,11.80
2019-04-01T07:58:04.246Z,11.90
2019-04-01T08:00:37.293Z,11.90
2019-04-01T08:03:10.101Z,11.80
2019-04-01T08:05:43.011Z,11.70
2019-04-01T08:08:15.862Z,11.70
2019-04-01T08:10:48.792Z,11.70
2019-04-01T08:13:21.622Z,11.70
2019-04-01T08:15:54.511Z,11.90
2019-04-01T08:18:27.472Z,11.70
2019-04-01T08:21:00.571Z,11.40
2019-04-01T08:23:33.460Z,11.40
2019-04-01T08:26:06.141Z,11.60
2019-04-01T08:28:39.121Z,11.60
2019-04-01T08:31:13.466Z,11.70
2019-04-01T08:33:50.032Z,11.80
2019-04-01T08:36:21.270Z,11.60
2019-04-01T08:38:55.551Z,11.70
2019-04-01T08:41:28.641Z,11.90
2019-04-01T08:44:03.263Z,11.90
2019-04-01T08:46:36.371Z,11.90
2019-04-01T08:49:09.141Z,12.00
2019-04-01T08:51:42.481Z,12.10
2019-04-01T08:54:15.441Z,12.10
2019-04-01T08:56:48.411Z,12.20
2019-04-01T08:59:21.321Z,12.30
2019-04-01T09:01:54.301Z,12.40
2019-04-01T09:04:27.121Z,12.30
2019-04-01T09:07:00.049Z,12.40
2019-04-01T09:09:32.901Z,12.50
2019-04-01T09:12:05.870Z,12.40
2019-04-01T09:14:38.877Z,12.40
2019-04-01T09:17:11.680Z,12.40
2019-04-01T09:19:44.671Z,13.00
2019-04-01T09:22:17.551Z,13.20
2019-04-01T09:24:50.401Z,13.40
2019-04-01T09:27:23.281Z,13.80
2019-04-01T09:29:56.252Z,13.60
2019-04-01T09:32:29.266Z,13.50
2019-04-01T09:35:02.193Z,13.60
2019-04-01T09:37:35.026Z,14.00
2019-04-01T09:40:07.754Z,14.30
2019-04-01T09:42:40.801Z,14.20
2019-04-01T09:45:13.643Z,14.40
2019-04-01T09:47:49.134Z,14.90
2019-04-01T09:50:22.042Z,15.00
2019-04-01T09:52:55.026Z,14.70
2019-04-01T09:55:28.012Z,14.40
2019-04-01T09:58:01.012Z,14.70
2019-04-01T10:00:33.872Z,14.70
2019-04-01T10:03:06.727Z,14.90
2019-04-01T10:05:39.623Z,15.00
2019-04-01T10:08:12.451Z,15.20
2019-04-01T10:10:45.450Z,15.90
2019-04-01T10:13:18.401Z,15.70
2019-04-01T10:15:51.371Z,15.70
2019-04-01T10:18:24.472Z,15.70
2019-04-01T10:20:57.441Z,16.30
2019-04-01T10:23:30.331Z,16.20
2019-04-01T10:26:03.907Z,16.20
2019-04-01T10:28:36.871Z,15.80
2019-04-01T10:42:07.377Z,16.50
2019-04-01T10:44:40.651Z,16.20
2019-04-01T10:47:13.373Z,16.80
2019-04-01T10:49:46.361Z,17.20
2019-04-01T10:52:19.492Z,16.60
2019-04-01T10:54:52.715Z,16.60
2019-04-01T10:57:25.781Z,16.50
2019-04-01T10:59:59.201Z,16.50
2019-04-01T11:02:32.388Z,15.90
2019-04-01T11:05:05.726Z,15.70
2019-04-01T11:07:38.691Z,16.10
2019-04-01T11:10:11.996Z,15.70
2019-04-01T11:12:45.471Z,15.10
2019-04-01T11:15:20.024Z,14.70
2019-04-01T11:17:53.713Z,14.60
2019-04-01T11:20:26.620Z,14.70
2019-04-01T11:23:02.526Z,14.90
2019-04-01T11:25:34.641Z,16.30
2019-04-01T11:28:07.591Z,16.10
2019-04-01T11:30:40.609Z,15.90
2019-04-01T11:33:13.837Z,16.10
2019-04-01T11:35:46.923Z,16.20
2019-04-01T11:38:20.013Z,16.30
2019-04-01T11:40:53.326Z,15.60
2019-04-01T11:43:26.434Z,16.40
2019-04-01T11:45:59.720Z,16.90
2019-04-01T11:48:32.658Z,15.70
2019-04-01T11:51:05.834Z,16.00
2019-04-01T11:53:38.990Z,16.00
2019-04-01T11:56:11.920Z,16.30
2019-04-01T11:58:44.890Z,16.30
2019-04-01T12:01:17.861Z,15.80
2019-04-01T12:03:50.671Z,16.40
2019-04-01T12:06:23.981Z,15.90
2019-04-01T12:08:56.951Z,16.00
2019-04-01T12:11:29.894Z,16.60
2019-04-01T12:14:05.116Z,16.80
2019-04-01T12:16:37.921Z,17.70
2019-04-01T12:19:10.723Z,17.70
2019-04-01T12:21:43.635Z,17.50
2019-04-01T12:24:16.550Z,17.30
2019-04-01T12:26:49.550Z,16.50
2019-04-01T12:29:22.371Z,16.20
2019-04-01T12:31:55.371Z,15.70
2019-04-01T12:34:28.317Z,15.70
2019-04-01T12:37:01.221Z,15.70
2019-04-01T12:39:34.210Z,15.50
2019-04-01T12:42:06.987Z,15.10
2019-04-01T12:44:41.354Z,15.20
2019-04-01T12:47:14.692Z,14.90
2019-04-01T12:49:47.691Z,14.90
2019-04-01T12:52:20.510Z,15.10
2019-04-01T12:54:53.731Z,15.30
2019-04-01T12:57:26.741Z,15.20
2019-04-01T12:59:59.850Z,15.00
2019-04-01T13:02:32.921Z,14.90
2019-04-01T13:05:05.918Z,15.00
2019-04-01T13:07:39.125Z,14.60
2019-04-01T13:10:11.970Z,14.80
2019-04-01T13:12:46.333Z,14.60
2019-04-01T13:15:19.661Z,14.70
2019-04-01T13:17:52.931Z,14.80
2019-04-01T13:20:37.183Z,14.90
2019-04-01T13:23:00.834Z,15.10
2019-04-01T13:25:34.198Z,15.10
2019-04-01T13:28:07.097Z,15.20
2019-04-01T13:30:40.000Z,15.20
2019-04-01T13:33:13.021Z,15.10
2019-04-01T13:35:46.101Z,15.00
2019-04-01T13:38:18.911Z,15.00
2019-04-01T13:40:51.825Z,15.00
2019-04-01T13:43:24.848Z,15.10
2019-04-01T13:45:57.829Z,15.00
2019-04-01T13:48:30.791Z,14.90
2019-04-01T13:51:04.418Z,14.90
2019-04-01T13:53:37.471Z,14.90
2019-04-01T13:56:12.271Z,14.60
2019-04-01T13:58:45.130Z,14.60
2019-04-01T14:01:18.032Z,14.40
2019-04-01T14:03:51.011Z,14.60
2019-04-01T14:06:23.831Z,14.90
2019-04-01T14:09:00.306Z,14.90
2019-04-01T14:11:31.490Z,14.90
2019-04-01T14:14:05.323Z,14.80
2019-04-01T14:16:41.371Z,14.90
2019-04-01T14:19:13.341Z,15.10
2019-04-01T14:21:46.391Z,15.00
2019-04-01T14:24:19.557Z,14.80
2019-04-01T14:26:56.390Z,14.70
2019-04-01T14:29:27.301Z,14.80
2019-04-01T14:32:00.440Z,14.90
2019-04-01T14:34:33.311Z,14.90
2019-04-01T14:37:09.673Z,15.00
2019-04-01T14:39:40.941Z,14.80
2019-04-01T14:42:14.040Z,14.80
2019-04-01T14:44:47.410Z,14.90
2019-04-01T14:47:20.471Z,15.20
2019-04-01T14:49:53.801Z,15.60
2019-04-01T14:52:32.573Z,15.50
2019-04-01T14:55:02.407Z,15.40
2019-04-01T14:57:35.665Z,15.30
2019-04-01T15:00:08.362Z,15.00
2019-04-01T15:02:41.330Z,15.10
2019-04-01T15:05:14.261Z,15.00
2019-04-01T15:07:47.375Z,15.20
2019-04-01T15:10:20.214Z,15.30
2019-04-01T15:13:04.437Z,15.40
2019-04-01T15:15:27.723Z,15.80
2019-04-01T15:18:00.883Z,15.50
2019-04-01T15:20:33.902Z,15.10
2019-04-01T15:23:06.601Z,15.00
2019-04-01T15:25:39.590Z,15.10
2019-04-01T15:28:12.470Z,15.10
2019-04-01T15:30:45.392Z,15.10
2019-04-01T15:33:18.270Z,15.20
2019-04-01T15:35:51.324Z,15.00
2019-04-01T15:38:24.231Z,15.00
2019-04-01T15:40:58.386Z,15.20
2019-04-01T15:43:31.681Z,15.10
2019-04-01T15:46:06.319Z,14.90
2019-04-01T15:48:39.622Z,15.00
2019-04-01T15:51:12.780Z,15.00
2019-04-01T15:53:45.720Z,14.80
2019-04-01T15:56:18.660Z,14.80
2019-04-01T15:58:51.602Z,14.90
2019-04-01T16:01:24.589Z,14.90
2019-04-01T16:03:57.651Z,14.80
2019-04-01T16:06:32.076Z,14.70
2019-04-01T16:09:06.279Z,14.70
2019-04-01T16:11:39.352Z,14.60
2019-04-01T16:14:12.611Z,14.50
2019-04-01T16:16:45.691Z,14.50
2019-04-01T16:19:18.831Z,14.40
2019-04-01T16:21:52.184Z,14.30
2019-04-01T16:24:26.232Z,14.10
2019-04-01T16:26:59.291Z,14.00
2019-04-01T16:29:32.430Z,14.00
2019-04-01T16:32:06.094Z,13.80
2019-04-01T16:34:41.979Z,13.60
2019-04-01T16:37:13.611Z,13.80
2019-04-01T16:39:46.731Z,13.90
2019-04-01T16:42:19.858Z,13.80
2019-04-01T16:44:54.190Z,13.70
2019-04-01T16:47:27.602Z,13.40
2019-04-01T16:50:01.280Z,13.30
2019-04-01T16:52:34.271Z,13.30
2019-04-01T16:55:07.221Z,13.20
2019-04-01T16:57:40.219Z,13.30
2019-04-01T17:00:14.814Z,13.10
2019-04-01T17:02:48.061Z,13.00
2019-04-01T17:05:21.169Z,12.80
2019-04-01T17:07:54.743Z,12.90
2019-04-01T17:10:28.181Z,12.70
2019-04-01T17:13:01.585Z,12.70
2019-04-01T17:15:35.250Z,12.40
2019-04-01T17:18:08.172Z,12.50
2019-04-01T17:20:41.839Z,12.40
2019-04-01T17:23:15.041Z,12.20
2019-04-01T17:25:48.150Z,12.40
2019-04-01T17:28:21.545Z,12.50
2019-04-01T17:30:54.771Z,12.30
2019-04-01T17:33:27.915Z,12.20
2019-04-01T17:36:01.171Z,12.20
2019-04-01T17:38:35.981Z,12.30
2019-04-01T17:41:08.931Z,12.20
2019-04-01T17:43:42.111Z,12.20
2019-04-01T17:46:14.891Z,12.30
2019-04-01T17:48:47.951Z,12.30
2019-04-01T17:51:20.921Z,12.20
2019-04-01T17:53:54.163Z,12.10
2019-04-01T17:56:27.290Z,12.20
2019-04-01T17:59:01.704Z,12.30
2019-04-01T18:01:35.164Z,12.20
2019-04-01T18:04:07.966Z,12.30
2019-04-01T18:06:41.060Z,12.40
2019-04-01T18:09:14.291Z,12.40
2019-04-01T18:11:47.351Z,12.40
2019-04-01T18:14:20.512Z,12.40
2019-04-01T18:16:53.411Z,12.10
2019-04-01T18:19:26.631Z,12.10
2019-04-01T18:22:00.272Z,12.20
2019-04-01T18:24:33.861Z,12.20
2019-04-01T18:27:06.651Z,12.10
2019-04-01T18:29:39.991Z,12.10
2019-04-01T18:32:12.951Z,12.20
2019-04-01T18:34:47.661Z,12.20
2019-04-01T18:37:21.148Z,12.30
2019-04-01T18:39:57.129Z,12.20
2019-04-01T18:42:31.162Z,12.20
2019-04-01T18:45:05.179Z,12.30
2019-04-01T18:47:39.070Z,12.10
2019-04-01T18:50:14.436Z,12.10
2019-04-01T18:52:48.252Z,12.10
2019-04-01T18:55:21.341Z,12.00
2019-04-01T18:57:56.135Z,12.00
2019-04-01T19:00:29.491Z,12.10
2019-04-01T19:03:02.562Z,11.90
2019-04-01T19:05:35.872Z,11.80
2019-04-01T19:08:08.752Z,11.90
2019-04-01T19:10:42.035Z,12.00
2019-04-01T19:13:15.271Z,11.90
2019-04-01T19:15:49.360Z,12.00
2019-04-01T19:18:23.175Z,11.90
2019-04-01T19:20:59.272Z,12.00
2019-04-01T19:23:31.421Z,11.90
2019-04-01T19:26:05.072Z,11.80
2019-04-01T19:28:37.962Z,11.80
2019-04-01T19:31:12.008Z,11.70
2019-04-01T19:33:45.171Z,11.60
2019-04-01T19:36:18.211Z,11.60
2019-04-01T19:38:51.050Z,11.50
2019-04-01T19:41:24.221Z,11.60
2019-04-01T19:43:57.091Z,11.60
2019-04-01T19:46:30.221Z,11.50
2019-04-01T19:49:05.203Z,11.40
2019-04-01T19:51:38.145Z,11.50
2019-04-01T19:54:11.091Z,11.40
2019-04-01T19:56:44.321Z,11.50
2019-04-01T19:59:17.411Z,11.40
2019-04-01T20:01:50.781Z,11.30
2019-04-01T20:04:23.734Z,11.30
2019-04-01T20:06:56.631Z,11.30
2019-04-01T20:09:29.837Z,11.30
2019-04-01T20:12:02.934Z,11.20
2019-04-01T20:14:36.012Z,11.10
2019-04-01T20:17:09.941Z,10.90
2019-04-01T20:19:43.201Z,10.90
2019-04-01T20:22:16.241Z,10.60
2019-04-01T20:24:49.161Z,10.40
2019-04-01T20:27:22.165Z,10.30
2019-04-01T20:29:55.381Z,10.10
2019-04-01T20:32:28.622Z,10.10
2019-04-01T20:35:01.732Z,10.00
2019-04-01T20:37:35.081Z,9.80
2019-04-01T20:40:07.961Z,10.00
2019-04-01T20:42:41.191Z,9.80
2019-04-01T20:45:14.023Z,9.50
2019-04-01T20:47:50.130Z,9.60
2019-04-01T20:50:21.901Z,9.40
2019-04-01T20:52:54.991Z,9.40
2019-04-01T20:55:28.082Z,9.30
2019-04-01T20:58:01.131Z,9.10
2019-04-01T21:00:34.064Z,9.20
2019-04-01T21:03:06.855Z,9.20
2019-04-01T21:05:39.962Z,9.10
2019-04-01T21:08:12.805Z,9.10
2019-04-01T21:10:45.772Z,8.90
2019-04-01T21:13:18.765Z,8.70
2019-04-01T21:15:51.974Z,8.70
2019-04-01T21:29:15.309Z,8.60
2019-04-01T21:31:48.552Z,8.50
2019-04-01T21:34:21.909Z,8.50
2019-04-01T21:36:54.859Z,8.50
2019-04-01T21:39:28.020Z,8.50
2019-04-01T21:42:01.473Z,8.40
2019-04-01T21:44:34.728Z,8.40
2019-04-01T21:47:07.791Z,8.50
2019-04-01T21:49:40.956Z,8.50
2019-04-01T21:52:13.849Z,8.40
2019-04-01T21:54:47.029Z,8.30
2019-04-01T21:57:20.621Z,8.20
2019-04-01T21:59:54.628Z,8.40
2019-04-01T22:02:35.897Z,8.40
2019-04-01T22:05:02.703Z,8.30
2019-04-01T22:07:36.185Z,8.40
2019-04-01T22:10:09.009Z,8.30
2019-04-01T22:12:42.230Z,8.20
2019-04-01T22:15:15.296Z,8.30
2019-04-01T22:17:48.170Z,8.30
2019-04-01T22:20:21.229Z,8.40
2019-04-01T22:22:54.488Z,8.60
2019-04-01T22:25:27.670Z,8.60
2019-04-01T22:28:00.511Z,8.60
2019-04-01T22:30:33.589Z,8.60
2019-04-01T22:33:06.532Z,8.70
2019-04-01T22:35:41.554Z,8.70
2019-04-01T22:38:24.564Z,8.70
2019-04-01T22:40:49.273Z,8.50
2019-04-01T22:43:22.208Z,8.60
2019-04-01T22:45:54.989Z,8.80
2019-04-01T22:48:28.011Z,8.70
2019-04-01T22:51:01.149Z,8.70
2019-04-01T22:53:34.449Z,8.70
2019-04-01T22:56:07.409Z,8.60
2019-04-01T22:58:40.324Z,8.60
2019-04-01T23:01:13.270Z,8.60
2019-04-01T23:03:46.228Z,8.60
2019-04-01T23:06:19.139Z,8.70
2019-04-01T23:08:52.190Z,8.70
2019-04-01T23:11:25.499Z,8.70
2019-04-01T23:13:59.320Z,8.60
2019-04-01T23:16:32.449Z,8.40
2019-04-01T23:19:05.708Z,8.40
2019-04-01T23:21:38.689Z,8.40
2019-04-01T23:24:11.536Z,8.50
2019-04-01T23:26:44.657Z,8.40
2019-04-01T23:29:18.088Z,8.50
2019-04-01T23:31:51.354Z,8.60
2019-04-01T23:34:24.631Z,8.70
2019-04-01T23:36:57.599Z,8.60
2019-04-01T23:39:30.588Z,8.60
2019-04-01T23:42:03.894Z,8.40
2019-04-01T23:44:37.028Z,8.60
2019-04-01T23:47:09.989Z,8.40
2019-04-01T23:49:42.909Z,8.60
2019-04-01T23:52:15.829Z,8.70
2019-04-01T23:54:49.428Z,8.80
2019-04-01T23:57:22.285Z,8.90
2019-04-01T23:59:55.769Z,8.70
